createdAt,value
2023-03-07T00:01:09.552Z,18.47
2023-03-07T00:03:36.974Z,22.73
2023-03-07T00:06:10.648Z,20.03
2023-03-07T00:08:37.817Z,22.60
2023-03-07T00:11:06.926Z,19.03
2023-03-07T00:13:35.364Z,19.07
2023-03-07T00:16:08.086Z,20.33
2023-03-07T00:18:35.612Z,16.70
2023-03-07T00:21:08.723Z,19.57
2023-03-07T00:23:37.233Z,21.37
2023-03-07T00:26:11.081Z,21.13
2023-03-07T00:28:38.273Z,21.33
2023-03-07T00:31:08.068Z,21.73
2023-03-07T00:33:35.994Z,19.93
2023-03-07T00:36:10.490Z,20.97
2023-03-07T00:38:37.842Z,22.63
2023-03-07T00:41:10.524Z,19.17
2023-03-07T00:43:38.294Z,19.23
2023-03-07T00:46:06.130Z,19.57
2023-03-07T00:48:34.712Z,22.63
2023-03-07T00:51:02.243Z,18.50
2023-03-07T00:53:29.489Z,18.00
2023-03-07T00:55:59.065Z,20.33
2023-03-07T00:58:28.111Z,18.97
2023-03-07T01:00:55.673Z,18.30
2023-03-07T01:03:24.134Z,20.00
2023-03-07T01:05:52.313Z,18.67
2023-03-07T01:08:19.906Z,19.10
2023-03-07T01:10:48.744Z,20.10
2023-03-07T01:13:17.105Z,19.03
2023-03-07T01:15:44.141Z,19.93
2023-03-07T01:18:11.636Z,17.63
2023-03-07T01:20:39.821Z,18.13
2023-03-07T01:23:06.844Z,19.00
2023-03-07T01:25:38.859Z,16.97
2023-03-07T01:28:06.801Z,17.83
2023-03-07T01:30:34.206Z,18.00
2023-03-07T01:33:02.784Z,16.70
2023-03-07T01:35:30.329Z,17.03
2023-03-07T01:37:57.714Z,16.27
2023-03-07T01:40:25.020Z,15.87
2023-03-07T01:42:53.443Z,17.37
2023-03-07T01:45:35.869Z,17.73
2023-03-07T01:48:03.024Z,18.43
2023-03-07T01:50:30.110Z,15.43
2023-03-07T01:53:01.416Z,16.83
2023-03-07T01:55:32.534Z,18.27
2023-03-07T01:58:07.482Z,15.30
2023-03-07T02:00:36.805Z,15.10
2023-03-07T02:03:12.079Z,17.67
2023-03-07T02:06:06.344Z,15.27
2023-03-07T02:08:35.948Z,17.23
2023-03-07T02:11:03.459Z,17.37
2023-03-07T02:13:30.544Z,17.07
2023-03-07T02:16:00.026Z,16.70
2023-03-07T02:18:30.505Z,18.43
2023-03-07T02:21:25.348Z,19.97
2023-03-07T02:23:55.115Z,14.90
2023-03-07T02:26:29.057Z,16.70
2023-03-07T02:28:56.632Z,16.87
2023-03-07T02:31:24.351Z,16.10
2023-03-07T02:33:51.642Z,18.00
2023-03-07T02:36:26.311Z,17.73
2023-03-07T02:38:55.307Z,16.90
2023-03-07T02:41:28.397Z,18.03
2023-03-07T02:43:55.524Z,17.80
2023-03-07T02:46:22.528Z,19.93
2023-03-07T02:48:49.550Z,19.63
2023-03-07T02:51:16.590Z,18.53
2023-03-07T02:53:44.063Z,19.13
2023-03-07T02:56:11.286Z,22.07
2023-03-07T02:58:38.365Z,21.07
2023-03-07T03:01:05.717Z,19.00
2023-03-07T03:03:32.507Z,20.97
2023-03-07T03:05:59.821Z,20.83
2023-03-07T03:08:26.690Z,23.13
2023-03-07T03:10:54.841Z,19.57
2023-03-07T03:13:22.162Z,20.73
2023-03-07T03:15:49.182Z,22.17
2023-03-07T03:18:16.162Z,22.13
2023-03-07T03:20:43.320Z,23.37
2023-03-07T03:23:10.112Z,25.27
2023-03-07T03:25:38.680Z,23.50
2023-03-07T03:28:07.484Z,24.47
2023-03-07T03:30:36.038Z,23.53
2023-03-07T03:33:04.182Z,22.00
2023-03-07T03:35:31.148Z,22.80
2023-03-07T03:37:57.982Z,24.87
2023-03-07T03:40:25.340Z,26.20
2023-03-07T03:42:53.349Z,23.27
2023-03-07T03:45:20.603Z,25.17
2023-03-07T03:47:48.477Z,25.57
2023-03-07T03:50:15.448Z,24.07
2023-03-07T03:52:45.411Z,24.33
2023-03-07T03:55:12.736Z,22.10
2023-03-07T03:57:39.574Z,22.43
2023-03-07T04:00:09.563Z,24.33
2023-03-07T04:02:36.585Z,23.67
2023-03-07T04:05:05.166Z,23.47
2023-03-07T04:07:32.172Z,24.97
2023-03-07T04:09:59.171Z,25.13
2023-03-07T04:12:26.722Z,25.07
2023-03-07T04:14:53.767Z,26.13
2023-03-07T04:17:20.542Z,25.73
2023-03-07T04:19:47.463Z,28.10
2023-03-07T04:22:14.499Z,26.23
2023-03-07T04:24:41.427Z,28.50
2023-03-07T04:27:08.869Z,26.17
2023-03-07T04:29:35.727Z,29.67
2023-03-07T04:32:02.710Z,27.37
2023-03-07T04:34:29.829Z,25.77
2023-03-07T04:36:57.197Z,27.37
2023-03-07T04:39:24.026Z,26.57
2023-03-07T04:41:51.431Z,31.90
2023-03-07T04:44:18.251Z,30.70
2023-03-07T04:46:45.040Z,28.33
2023-03-07T04:49:12.032Z,27.07
2023-03-07T04:51:38.869Z,28.63
2023-03-07T04:54:05.853Z,24.70
2023-03-07T04:56:32.804Z,22.07
2023-03-07T04:58:59.641Z,12.30
2023-03-07T05:01:26.490Z,7.57
2023-03-07T05:03:53.747Z,7.13
2023-03-07T05:06:20.583Z,6.50
2023-03-07T05:08:47.802Z,7.20
2023-03-07T05:11:15.063Z,9.60
2023-03-07T05:13:41.923Z,9.30
2023-03-07T05:16:08.840Z,10.77
2023-03-07T05:18:36.129Z,12.60
2023-03-07T05:21:03.059Z,12.97
2023-03-07T05:23:29.912Z,13.23
2023-03-07T05:25:56.896Z,10.97
2023-03-07T05:28:24.124Z,13.60
2023-03-07T05:30:51.943Z,11.10
2023-03-07T05:33:18.928Z,9.60
2023-03-07T05:35:46.847Z,9.53
2023-03-07T05:38:14.230Z,10.20
2023-03-07T05:40:41.355Z,10.03
2023-03-07T05:43:08.226Z,5.63
2023-03-07T05:45:35.076Z,7.43
2023-03-07T05:48:02.338Z,7.73
2023-03-07T05:50:29.273Z,8.77
2023-03-07T05:52:56.084Z,6.73
2023-03-07T05:55:23.147Z,7.30
2023-03-07T05:57:50.443Z,6.43
2023-03-07T06:00:17.740Z,7.40
2023-03-07T06:02:44.999Z,7.23
2023-03-07T06:05:11.871Z,6.93
2023-03-07T06:07:38.571Z,8.40
2023-03-07T06:10:07.676Z,8.13
2023-03-07T06:12:34.886Z,9.90
2023-03-07T06:15:01.856Z,7.27
2023-03-07T06:17:28.882Z,6.50
2023-03-07T06:19:55.626Z,5.60
2023-03-07T06:22:22.509Z,5.60
2023-03-07T06:24:49.724Z,5.60
2023-03-07T06:27:16.590Z,7.50
2023-03-07T06:29:43.438Z,7.97
2023-03-07T06:32:10.414Z,9.33
2023-03-07T06:34:37.304Z,8.20
2023-03-07T06:37:04.180Z,5.63
2023-03-07T06:39:31.529Z,10.37
2023-03-07T06:41:58.357Z,9.67
2023-03-07T06:44:25.194Z,6.07
2023-03-07T06:46:52.096Z,7.10
2023-03-07T06:49:18.886Z,7.23
2023-03-07T06:51:45.936Z,9.00
2023-03-07T06:54:12.893Z,8.03
2023-03-07T06:56:39.834Z,6.40
2023-03-07T06:59:06.721Z,5.87
2023-03-07T07:01:35.798Z,4.80
2023-03-07T07:04:02.908Z,5.43
2023-03-07T07:06:29.891Z,8.47
2023-03-07T07:08:58.103Z,7.30
2023-03-07T07:11:25.865Z,8.27
2023-03-07T07:13:52.693Z,9.73
2023-03-07T07:16:20.648Z,7.53
2023-03-07T07:18:49.527Z,8.23
2023-03-07T07:21:16.345Z,5.57
2023-03-07T07:23:43.939Z,3.93
2023-03-07T07:26:10.833Z,5.57
2023-03-07T07:28:37.628Z,5.53
2023-03-07T07:31:04.731Z,5.17
2023-03-07T07:33:31.815Z,5.53
2023-03-07T07:35:58.737Z,6.10
2023-03-07T07:38:25.801Z,4.87
2023-03-07T07:40:52.668Z,5.30
2023-03-07T07:43:19.567Z,8.33
2023-03-07T07:45:47.013Z,7.50
2023-03-07T07:48:14.271Z,8.73
2023-03-07T07:50:41.082Z,6.00
2023-03-07T07:53:08.153Z,6.47
2023-03-07T07:55:35.099Z,5.40
2023-03-07T07:58:02.483Z,6.33
2023-03-07T08:00:29.547Z,7.90
2023-03-07T08:02:56.489Z,5.07
2023-03-07T08:05:23.508Z,6.30
2023-03-07T08:07:50.748Z,5.77
2023-03-07T08:10:18.326Z,4.57
2023-03-07T08:12:49.891Z,4.90
2023-03-07T08:15:17.145Z,4.83
2023-03-07T08:17:44.632Z,4.47
2023-03-07T08:20:12.192Z,4.73
2023-03-07T08:22:39.992Z,3.93
2023-03-07T08:25:08.331Z,3.80
2023-03-07T08:27:35.523Z,3.17
2023-03-07T08:30:02.499Z,3.50
2023-03-07T08:32:29.427Z,3.47
2023-03-07T08:34:56.742Z,3.33
2023-03-07T08:37:23.767Z,5.00
2023-03-07T08:39:51.094Z,2.80
2023-03-07T08:42:18.649Z,3.17
2023-03-07T08:44:45.459Z,2.13
2023-03-07T08:47:13.686Z,2.40
2023-03-07T08:49:40.909Z,3.63
2023-03-07T08:52:07.676Z,1.87
2023-03-07T08:54:34.738Z,1.63
2023-03-07T08:57:01.708Z,1.93
2023-03-07T08:59:29.239Z,2.13
2023-03-07T09:01:57.500Z,1.70
2023-03-07T09:04:24.977Z,1.20
2023-03-07T09:06:52.189Z,1.80
2023-03-07T09:09:19.066Z,3.97
2023-03-07T09:11:46.124Z,1.93
2023-03-07T09:14:12.971Z,2.10
2023-03-07T09:16:40.009Z,3.70
2023-03-07T09:19:07.363Z,1.40
2023-03-07T09:21:34.092Z,1.37
2023-03-07T09:24:01.282Z,1.50
2023-03-07T09:26:28.333Z,2.17
2023-03-07T09:28:55.498Z,1.83
2023-03-07T09:31:22.571Z,1.30
2023-03-07T09:33:49.958Z,3.50
2023-03-07T09:36:18.240Z,2.37
2023-03-07T09:38:45.973Z,2.00
2023-03-07T09:41:34.317Z,1.93
2023-03-07T09:44:11.402Z,3.10
2023-03-07T09:46:53.901Z,2.10
2023-03-07T09:49:43.977Z,1.77
2023-03-07T09:52:20.710Z,2.30
2023-03-07T09:54:54.291Z,2.20
2023-03-07T09:57:28.773Z,2.90
2023-03-07T10:00:36.529Z,2.53
2023-03-07T10:03:22.617Z,4.53
2023-03-07T10:05:51.516Z,2.23
2023-03-07T10:08:31.087Z,1.37
2023-03-07T10:11:25.946Z,8.90
2023-03-07T10:13:55.944Z,2.57
2023-03-07T10:16:41.112Z,2.67
2023-03-07T10:19:14.079Z,1.37
2023-03-07T10:21:51.274Z,3.67
2023-03-07T10:24:24.474Z,2.43
2023-03-07T10:27:09.718Z,1.67
2023-03-07T10:29:48.429Z,2.63
2023-03-07T10:32:27.579Z,1.57
2023-03-07T10:35:16.479Z,2.47
2023-03-07T10:38:25.778Z,3.20
2023-03-07T10:40:56.935Z,1.80
2023-03-07T10:43:32.698Z,1.40
2023-03-07T10:46:26.912Z,1.33
2023-03-07T10:49:13.701Z,2.40
2023-03-07T10:51:56.374Z,1.43
2023-03-07T10:54:43.586Z,1.57
2023-03-07T10:57:15.505Z,1.33
2023-03-07T10:59:48.709Z,2.77
2023-03-07T11:02:42.304Z,1.30
2023-03-07T11:05:24.521Z,2.60
2023-03-07T11:07:51.524Z,2.40
2023-03-07T11:10:40.068Z,2.43
2023-03-07T11:13:21.201Z,3.37
2023-03-07T11:15:49.206Z,4.00
2023-03-07T11:18:28.095Z,2.00
2023-03-07T11:20:54.883Z,1.70
2023-03-07T11:23:27.445Z,2.83
2023-03-07T11:25:56.551Z,2.80
2023-03-07T11:28:35.426Z,2.20
2023-03-07T11:31:34.132Z,3.07
2023-03-07T11:34:37.026Z,2.50
2023-03-07T11:37:29.907Z,2.80
2023-03-07T11:40:15.128Z,3.63
2023-03-07T11:42:51.800Z,2.47
2023-03-07T11:45:57.097Z,2.17
2023-03-07T11:48:48.032Z,4.37
2023-03-07T11:51:51.571Z,2.90
2023-03-07T11:54:27.355Z,4.10
2023-03-07T11:57:00.579Z,3.17
2023-03-07T11:59:55.800Z,2.77
2023-03-07T12:02:48.299Z,3.20
2023-03-07T12:05:45.612Z,3.20
2023-03-07T12:08:43.637Z,3.27
2023-03-07T12:11:25.942Z,2.67
2023-03-07T12:14:12.000Z,3.60
2023-03-07T12:16:42.180Z,2.70
2023-03-07T12:19:38.529Z,4.67
2023-03-07T12:22:20.827Z,4.13
2023-03-07T12:25:07.993Z,3.03
2023-03-07T12:27:47.885Z,2.60
2023-03-07T12:30:22.837Z,3.43
2023-03-07T12:32:51.217Z,4.60
2023-03-07T12:35:23.325Z,4.53
2023-03-07T12:37:58.733Z,2.37
2023-03-07T12:40:45.880Z,4.03
2023-03-07T12:43:18.461Z,2.07
2023-03-07T12:45:55.027Z,2.60
2023-03-07T12:48:52.345Z,3.97
2023-03-07T12:51:28.008Z,3.93
2023-03-07T12:54:33.222Z,5.93
2023-03-07T12:57:05.423Z,4.20
2023-03-07T12:59:37.554Z,5.20
2023-03-07T13:02:10.877Z,2.77
2023-03-07T13:04:43.299Z,6.13
2023-03-07T13:07:10.385Z,3.83
2023-03-07T13:09:42.368Z,3.47
2023-03-07T13:12:24.468Z,4.33
2023-03-07T13:15:07.527Z,6.63
2023-03-07T13:17:38.186Z,4.80
2023-03-07T13:20:20.096Z,3.77
2023-03-07T13:22:49.588Z,6.00
2023-03-07T13:25:27.433Z,5.40
2023-03-07T13:28:06.175Z,4.87
2023-03-07T13:30:34.479Z,3.00
2023-03-07T13:33:02.996Z,5.50
2023-03-07T13:35:32.869Z,4.03
2023-03-07T13:38:24.576Z,6.73
2023-03-07T13:41:02.921Z,5.80
2023-03-07T13:43:30.082Z,10.63
2023-03-07T13:46:05.331Z,6.27
2023-03-07T13:48:32.716Z,7.67
2023-03-07T13:51:00.260Z,6.40
2023-03-07T13:54:00.342Z,7.17
2023-03-07T13:56:30.432Z,5.23
2023-03-07T13:59:14.782Z,10.57
2023-03-07T14:01:47.587Z,6.20
2023-03-07T14:04:33.206Z,5.80
2023-03-07T14:07:21.861Z,14.47
2023-03-07T14:10:26.950Z,6.87
2023-03-07T14:13:12.549Z,6.00
2023-03-07T14:16:02.510Z,5.20
2023-03-07T14:18:38.873Z,6.93
2023-03-07T14:21:50.214Z,9.43
2023-03-07T14:24:35.826Z,9.23
2023-03-07T14:27:13.170Z,8.43
2023-03-07T14:29:49.644Z,9.30
2023-03-07T14:32:31.376Z,6.37
2023-03-07T14:34:59.423Z,6.67
2023-03-07T14:37:28.869Z,6.60
2023-03-07T14:40:34.444Z,6.63
2023-03-07T14:43:33.453Z,6.23
2023-03-07T14:46:06.566Z,5.23
2023-03-07T14:49:11.370Z,8.10
2023-03-07T14:51:41.820Z,4.47
2023-03-07T14:54:16.593Z,6.20
2023-03-07T14:56:44.251Z,3.67
2023-03-07T14:59:22.558Z,4.30
2023-03-07T15:01:57.881Z,4.17
2023-03-07T15:04:32.125Z,4.60
2023-03-07T15:07:02.308Z,5.53
2023-03-07T15:09:30.414Z,8.97
2023-03-07T15:12:15.907Z,5.37
2023-03-07T15:14:51.151Z,4.77
2023-03-07T15:17:26.889Z,5.23
2023-03-07T15:20:00.177Z,4.40
2023-03-07T15:22:31.147Z,5.80
2023-03-07T15:24:58.306Z,5.60
2023-03-07T15:27:33.464Z,4.50
2023-03-07T15:30:03.206Z,6.33
2023-03-07T15:32:30.258Z,5.23
2023-03-07T15:35:03.028Z,5.70
2023-03-07T15:37:34.701Z,4.57
2023-03-07T15:40:10.532Z,4.40
2023-03-07T15:42:54.149Z,2.33
2023-03-07T15:45:41.682Z,3.07
2023-03-07T15:48:37.816Z,1.60
2023-03-07T15:51:11.772Z,4.20
2023-03-07T15:53:40.999Z,3.80
2023-03-07T15:56:21.740Z,2.80
2023-03-07T15:58:48.889Z,3.13
2023-03-07T16:01:23.332Z,2.20
2023-03-07T16:04:06.788Z,2.20
2023-03-07T16:06:44.993Z,1.70
2023-03-07T16:09:14.734Z,1.93
2023-03-07T16:11:42.629Z,2.57
2023-03-07T16:14:21.930Z,1.47
2023-03-07T16:16:49.467Z,0.73
2023-03-07T16:19:16.499Z,2.30
2023-03-07T16:21:43.595Z,4.30
2023-03-07T16:24:10.520Z,4.67
2023-03-07T16:26:38.662Z,4.77
2023-03-07T16:29:07.412Z,3.07
2023-03-07T16:31:34.345Z,2.67
2023-03-07T16:34:01.477Z,1.73
2023-03-07T16:36:28.583Z,2.13
2023-03-07T16:38:55.876Z,2.40
2023-03-07T16:41:23.370Z,6.60
2023-03-07T16:43:56.437Z,3.53
2023-03-07T16:46:24.495Z,10.13
2023-03-07T16:48:51.331Z,4.30
2023-03-07T16:51:21.807Z,3.00
2023-03-07T16:53:50.140Z,5.70
2023-03-07T16:56:25.643Z,3.23
2023-03-07T16:58:53.031Z,3.07
2023-03-07T17:01:20.004Z,3.40
2023-03-07T17:03:47.241Z,5.30
2023-03-07T17:06:16.638Z,2.90
2023-03-07T17:08:47.067Z,4.60
2023-03-07T17:11:22.135Z,3.03
2023-03-07T17:13:52.372Z,3.30
2023-03-07T17:16:19.921Z,3.77
2023-03-07T17:18:46.980Z,2.13
2023-03-07T17:21:16.145Z,2.30
2023-03-07T17:23:45.068Z,5.47
2023-03-07T17:26:29.392Z,5.57
2023-03-07T17:29:01.236Z,4.40
2023-03-07T17:31:28.442Z,2.87
2023-03-07T17:33:55.697Z,2.50
2023-03-07T17:36:22.590Z,6.43
2023-03-07T17:38:49.730Z,3.10
2023-03-07T17:41:17.089Z,3.40
2023-03-07T17:43:44.264Z,4.37
2023-03-07T17:46:12.135Z,4.70
2023-03-07T17:48:39.718Z,3.10
2023-03-07T17:51:11.030Z,3.83
2023-03-07T17:53:38.528Z,4.60
2023-03-07T17:56:16.231Z,2.53
2023-03-07T17:58:43.364Z,3.43
2023-03-07T18:01:11.992Z,2.77
2023-03-07T18:03:39.360Z,4.90
2023-03-07T18:06:06.603Z,2.27
2023-03-07T18:08:33.588Z,3.70
2023-03-07T18:11:12.702Z,6.33
2023-03-07T18:13:39.993Z,3.20
2023-03-07T18:16:07.530Z,4.03
2023-03-07T18:18:38.150Z,5.93
2023-03-07T18:21:08.265Z,5.87
2023-03-07T18:23:36.115Z,5.93
2023-03-07T18:26:04.865Z,6.30
2023-03-07T18:28:33.361Z,6.33
2023-03-07T18:31:08.765Z,5.10
2023-03-07T18:33:36.936Z,7.93
2023-03-07T18:36:05.237Z,10.30
2023-03-07T18:38:33.025Z,9.00
2023-03-07T18:41:08.944Z,6.57
2023-03-07T18:43:36.586Z,7.57
2023-03-07T18:46:05.078Z,7.43
2023-03-07T18:48:31.934Z,9.40
2023-03-07T18:51:00.695Z,9.70
2023-03-07T18:53:28.346Z,9.97
2023-03-07T18:55:55.231Z,8.53
2023-03-07T18:58:23.140Z,10.73
2023-03-07T19:00:50.350Z,10.67
2023-03-07T19:03:17.186Z,7.40
2023-03-07T19:05:49.666Z,9.93
2023-03-07T19:08:16.992Z,8.13
2023-03-07T19:10:45.680Z,5.57
2023-03-07T19:13:12.791Z,7.27
2023-03-07T19:15:39.632Z,7.97
2023-03-07T19:18:06.760Z,6.27
2023-03-07T19:20:33.877Z,8.17
2023-03-07T19:23:00.744Z,9.60
2023-03-07T19:25:30.431Z,5.13
2023-03-07T19:27:57.550Z,4.77
2023-03-07T19:30:24.765Z,6.07
2023-03-07T19:32:51.720Z,8.47
2023-03-07T19:35:19.020Z,6.37
2023-03-07T19:37:47.039Z,8.57
2023-03-07T19:40:13.963Z,7.20
2023-03-07T19:42:41.782Z,9.33
2023-03-07T19:45:09.125Z,5.87
2023-03-07T19:47:35.917Z,7.17
2023-03-07T19:50:03.276Z,9.20
2023-03-07T19:52:30.172Z,7.90
2023-03-07T19:54:57.084Z,8.57
2023-03-07T19:57:24.015Z,8.77
2023-03-07T19:59:54.259Z,8.53
2023-03-07T20:02:22.308Z,8.27
2023-03-07T20:04:50.237Z,8.67
2023-03-07T20:07:17.104Z,10.70
2023-03-07T20:09:44.025Z,9.60
2023-03-07T20:12:11.562Z,7.77
2023-03-07T20:14:42.812Z,6.77
2023-03-07T20:17:11.345Z,7.60
2023-03-07T20:19:39.619Z,7.87
2023-03-07T20:22:07.007Z,9.23
2023-03-07T20:24:36.216Z,10.23
2023-03-07T20:27:03.611Z,8.23
2023-03-07T20:29:31.252Z,8.20
2023-03-07T20:31:58.249Z,8.60
2023-03-07T20:34:25.564Z,8.27
2023-03-07T20:36:54.748Z,8.13
2023-03-07T20:39:21.783Z,12.20
2023-03-07T20:41:49.346Z,6.90
2023-03-07T20:44:16.657Z,7.40
2023-03-07T20:46:43.660Z,9.87
2023-03-07T20:49:13.874Z,6.97
2023-03-07T20:51:42.045Z,7.03
2023-03-07T20:54:13.707Z,9.20
2023-03-07T20:56:41.339Z,7.20
2023-03-07T20:59:10.646Z,9.63
2023-03-07T21:01:37.853Z,7.57
2023-03-07T21:04:11.496Z,8.00
2023-03-07T21:06:41.499Z,8.27
2023-03-07T21:09:10.441Z,12.30
2023-03-07T21:11:40.234Z,9.13
2023-03-07T21:14:08.588Z,8.73
2023-03-07T21:16:35.985Z,8.23
2023-03-07T21:19:05.513Z,9.23
2023-03-07T21:21:34.122Z,10.10
2023-03-07T21:24:01.290Z,8.47
2023-03-07T21:26:31.077Z,7.33
2023-03-07T21:28:58.776Z,9.10
2023-03-07T21:31:30.707Z,7.60
2023-03-07T21:34:00.480Z,9.40
2023-03-07T21:36:28.320Z,8.20
2023-03-07T21:38:56.073Z,7.80
2023-03-07T21:41:25.536Z,7.93
2023-03-07T21:43:54.028Z,6.37
2023-03-07T21:46:21.915Z,8.27
2023-03-07T21:48:49.269Z,9.57
2023-03-07T21:51:16.974Z,7.70
2023-03-07T21:53:44.160Z,10.30
2023-03-07T21:56:13.401Z,8.73
2023-03-07T21:58:40.602Z,6.80
2023-03-07T22:01:11.873Z,7.93
2023-03-07T22:03:39.711Z,10.93
2023-03-07T22:06:08.446Z,10.23
2023-03-07T22:08:36.066Z,8.57
2023-03-07T22:11:05.239Z,9.67
2023-03-07T22:13:34.447Z,8.43
2023-03-07T22:16:03.777Z,10.20
2023-03-07T22:18:31.419Z,11.13
2023-03-07T22:20:58.730Z,8.10
2023-03-07T22:23:29.240Z,9.17
2023-03-07T22:25:56.044Z,10.50
2023-03-07T22:28:23.064Z,13.63
2023-03-07T22:30:50.126Z,10.13
2023-03-07T22:33:17.124Z,10.67
2023-03-07T22:35:44.039Z,10.47
2023-03-07T22:38:11.101Z,8.50
2023-03-07T22:40:39.869Z,8.53
2023-03-07T22:43:06.729Z,11.60
2023-03-07T22:45:33.708Z,9.20
2023-03-07T22:48:01.100Z,8.77
2023-03-07T22:50:28.834Z,8.03
2023-03-07T22:52:55.891Z,9.93
2023-03-07T22:55:22.800Z,8.93
2023-03-07T22:57:49.616Z,10.53
2023-03-07T23:00:16.884Z,9.33
2023-03-07T23:02:43.979Z,9.70
2023-03-07T23:05:11.224Z,11.03
2023-03-07T23:07:38.324Z,11.40
2023-03-07T23:10:05.600Z,11.70
2023-03-07T23:12:32.940Z,12.40
2023-03-07T23:15:00.428Z,10.83
2023-03-07T23:17:27.256Z,11.13
2023-03-07T23:19:54.642Z,11.03
2023-03-07T23:22:21.607Z,10.37
2023-03-07T23:24:48.386Z,12.37
2023-03-07T23:27:15.735Z,14.40
2023-03-07T23:29:42.535Z,14.93
2023-03-07T23:32:09.722Z,15.77
2023-03-07T23:34:36.672Z,17.63
2023-03-07T23:37:03.488Z,13.17
2023-03-07T23:39:30.290Z,12.50
2023-03-07T23:41:57.309Z,12.73
2023-03-07T23:44:24.647Z,15.07
2023-03-07T23:46:51.457Z,14.17
2023-03-07T23:49:18.416Z,15.73
2023-03-07T23:51:45.279Z,14.00
2023-03-07T23:54:12.505Z,17.63
2023-03-07T23:56:39.503Z,14.97
2023-03-07T23:59:07.368Z,13.90
